createdAt,value
2022-12-18T00:00:19.147Z,85.95
2022-12-18T00:03:08.154Z,85.60
2022-12-18T00:05:37.741Z,85.00
2022-12-18T00:08:09.105Z,85.15
2022-12-18T00:10:38.475Z,84.73
2022-12-18T00:13:09.974Z,84.50
2022-12-18T00:15:40.915Z,84.77
2022-12-18T00:18:13.792Z,84.52
2022-12-18T00:20:44.651Z,84.43
2022-12-18T00:23:13.270Z,84.62
2022-12-18T00:25:42.036Z,85.12
2022-12-18T00:28:10.841Z,84.81
2022-12-18T00:30:39.609Z,84.58
2022-12-18T00:33:10.067Z,84.61
2022-12-18T00:35:38.850Z,84.54
2022-12-18T00:38:07.594Z,85.10
2022-12-18T00:40:36.225Z,84.81
2022-12-18T00:43:04.821Z,84.73
2022-12-18T00:45:33.538Z,85.12
2022-12-18T00:48:03.198Z,84.65
2022-12-18T00:50:33.296Z,84.49
2022-12-18T00:53:02.661Z,84.18
2022-12-18T00:55:31.424Z,83.87
2022-12-18T00:58:00.214Z,83.76
2022-12-18T01:00:28.850Z,83.59
2022-12-18T01:02:57.490Z,84.43
2022-12-18T01:05:27.913Z,84.27
2022-12-18T01:07:58.187Z,84.90
2022-12-18T01:10:27.219Z,85.02
2022-12-18T01:12:59.674Z,85.64
2022-12-18T01:15:28.328Z,85.15
2022-12-18T01:17:57.038Z,85.83
2022-12-18T01:20:29.318Z,85.93
2022-12-18T01:22:58.018Z,85.71
2022-12-18T01:25:26.865Z,86.32
2022-12-18T01:27:55.710Z,86.23
2022-12-18T01:30:24.998Z,86.27
2022-12-18T01:32:55.262Z,86.13
2022-12-18T01:35:23.805Z,87.10
2022-12-18T01:37:56.355Z,87.27
2022-12-18T01:40:25.215Z,87.56
2022-12-18T01:42:55.135Z,87.52
2022-12-18T01:45:28.557Z,87.47
2022-12-18T01:48:04.787Z,87.13
2022-12-18T01:50:42.496Z,87.07
2022-12-18T01:53:22.125Z,86.74
2022-12-18T01:55:57.718Z,86.78
2022-12-18T01:58:38.509Z,86.92
2022-12-18T02:04:24.257Z,86.01
2022-12-18T02:07:27.003Z,85.58
2022-12-18T02:10:56.636Z,85.85
2022-12-18T02:13:41.724Z,85.39
2022-12-18T02:16:32.145Z,85.46
2022-12-18T02:19:17.176Z,85.76
2022-12-18T02:22:13.228Z,85.74
2022-12-18T02:25:25.210Z,85.88
2022-12-18T02:28:01.376Z,86.11
2022-12-18T02:30:37.297Z,86.46
2022-12-18T02:33:09.315Z,87.08
2022-12-18T02:35:41.088Z,87.41
2022-12-18T02:38:11.364Z,86.89
2022-12-18T02:40:43.948Z,86.71
2022-12-18T02:43:16.899Z,86.83
2022-12-18T02:45:58.765Z,86.66
2022-12-18T02:48:35.597Z,86.78
2022-12-18T02:51:34.306Z,87.40
2022-12-18T02:54:42.854Z,87.08
2022-12-18T02:57:43.746Z,86.79
2022-12-18T03:00:34.961Z,86.67
2022-12-18T03:03:20.635Z,86.56
2022-12-18T03:05:57.982Z,86.57
2022-12-18T03:08:31.592Z,87.22
2022-12-18T03:11:15.492Z,86.84
2022-12-18T03:13:57.485Z,86.58
2022-12-18T03:16:32.586Z,86.38
2022-12-18T03:19:08.014Z,86.22
2022-12-18T03:21:46.387Z,86.28
2022-12-18T03:24:17.983Z,86.54
2022-12-18T03:26:55.644Z,86.70
2022-12-18T03:29:48.074Z,86.65
2022-12-18T03:33:07.969Z,86.40
2022-12-18T03:35:43.045Z,85.74
2022-12-18T03:38:13.784Z,86.01
2022-12-18T03:41:47.556Z,85.65
2022-12-18T03:45:35.941Z,86.08
2022-12-18T03:48:14.021Z,86.18
2022-12-18T03:51:03.389Z,87.75
2022-12-18T03:53:59.820Z,86.59
2022-12-18T03:56:40.150Z,86.48
2022-12-18T03:59:12.629Z,86.74
2022-12-18T04:01:48.967Z,86.55
2022-12-18T04:04:20.375Z,86.38
2022-12-18T04:06:51.618Z,85.97
2022-12-18T04:09:21.986Z,85.90
2022-12-18T04:11:52.881Z,86.01
2022-12-18T04:14:22.289Z,86.02
2022-12-18T04:16:52.921Z,86.29
2022-12-18T04:19:24.582Z,86.48
2022-12-18T04:21:53.681Z,86.43
2022-12-18T04:24:22.770Z,86.27
2022-12-18T04:27:09.064Z,85.92
2022-12-18T04:29:44.720Z,86.07
2022-12-18T04:32:13.609Z,85.67
2022-12-18T04:34:43.217Z,85.75
2022-12-18T04:37:12.717Z,85.80
2022-12-18T04:39:41.817Z,85.85
2022-12-18T04:42:16.346Z,85.50
2022-12-18T04:44:45.948Z,85.67
2022-12-18T04:47:14.640Z,85.48
2022-12-18T04:49:43.425Z,85.36
2022-12-18T04:52:12.429Z,85.70
2022-12-18T04:54:41.313Z,85.52
2022-12-18T04:57:10.203Z,85.89
2022-12-18T04:59:39.199Z,85.62
2022-12-18T05:02:08.163Z,85.34
2022-12-18T05:04:37.327Z,85.94
2022-12-18T05:07:06.287Z,85.65
2022-12-18T05:09:35.072Z,86.29
2022-12-18T05:12:04.514Z,86.33
2022-12-18T05:14:33.261Z,86.09
2022-12-18T05:17:02.158Z,86.42
2022-12-18T05:19:31.060Z,86.07
2022-12-18T05:22:00.140Z,86.33
2022-12-18T05:24:29.033Z,86.28
2022-12-18T05:26:58.129Z,86.35
2022-12-18T05:29:27.134Z,85.78
2022-12-18T05:31:56.989Z,86.12
2022-12-18T05:34:26.407Z,85.42
2022-12-18T05:36:55.662Z,85.37
2022-12-18T05:39:25.051Z,84.93
2022-12-18T05:41:53.943Z,84.95
2022-12-18T05:44:23.046Z,85.06
2022-12-18T05:46:52.296Z,85.40
2022-12-18T05:49:21.581Z,85.07
2022-12-18T05:51:50.628Z,84.45
2022-12-18T05:54:19.522Z,84.39
2022-12-18T05:56:49.038Z,84.11
2022-12-18T05:59:18.021Z,84.37
2022-12-18T06:01:47.419Z,84.80
2022-12-18T06:04:16.430Z,85.09
2022-12-18T06:06:45.725Z,85.12
2022-12-18T06:09:14.521Z,84.73
2022-12-18T06:11:43.424Z,84.82
2022-12-18T06:14:12.092Z,84.34
2022-12-18T06:16:41.030Z,84.43
2022-12-18T06:19:17.896Z,84.70
2022-12-18T06:21:46.749Z,84.79
2022-12-18T06:24:16.052Z,85.14
2022-12-18T06:26:44.950Z,84.32
2022-12-18T06:29:14.791Z,84.50
2022-12-18T06:31:44.438Z,84.86
2022-12-18T06:34:13.872Z,84.82
2022-12-18T06:36:42.657Z,85.10
2022-12-18T06:39:11.692Z,85.56
2022-12-18T06:41:40.482Z,85.04
2022-12-18T06:44:09.240Z,85.17
2022-12-18T06:46:39.970Z,84.66
2022-12-18T06:49:10.588Z,84.65
2022-12-18T06:58:02.769Z,82.97
2022-12-18T07:00:32.138Z,82.89
2022-12-18T07:03:01.357Z,82.47
2022-12-18T07:05:30.469Z,82.36
2022-12-18T07:08:00.250Z,82.44
2022-12-18T07:10:29.120Z,82.38
2022-12-18T07:12:57.802Z,82.49
2022-12-18T07:15:26.544Z,83.12
2022-12-18T07:17:55.267Z,83.23
2022-12-18T07:20:23.929Z,83.68
2022-12-18T07:22:56.202Z,83.76
2022-12-18T07:25:26.058Z,84.81
2022-12-18T07:27:56.179Z,84.38
2022-12-18T07:30:25.646Z,83.97
2022-12-18T07:32:55.339Z,84.46
2022-12-18T07:35:25.993Z,84.40
2022-12-18T07:37:56.181Z,84.68
2022-12-18T07:40:27.040Z,84.75
2022-12-18T07:42:57.707Z,84.36
2022-12-18T07:45:26.834Z,84.43
2022-12-18T07:47:55.664Z,84.60
2022-12-18T07:50:28.198Z,84.42
2022-12-18T07:52:59.964Z,84.57
2022-12-18T07:55:47.909Z,84.36
2022-12-18T07:58:19.617Z,84.56
2022-12-18T08:00:48.391Z,84.28
2022-12-18T08:03:18.288Z,84.95
2022-12-18T08:05:47.044Z,84.47
2022-12-18T08:08:15.755Z,83.89
2022-12-18T08:10:44.529Z,83.05
2022-12-18T08:13:13.221Z,82.20
2022-12-18T08:15:41.898Z,81.47
2022-12-18T08:18:14.625Z,81.80
2022-12-18T08:20:47.768Z,81.92
2022-12-18T08:23:16.460Z,82.25
2022-12-18T08:25:45.274Z,81.91
2022-12-18T08:28:14.229Z,82.26
2022-12-18T08:30:44.503Z,82.36
2022-12-18T08:33:13.907Z,82.40
2022-12-18T08:35:45.839Z,82.14
2022-12-18T08:38:15.131Z,80.63
2022-12-18T08:40:44.095Z,79.78
2022-12-18T08:43:31.355Z,80.35
2022-12-18T08:46:00.443Z,80.11
2022-12-18T08:48:29.306Z,79.80
2022-12-18T08:51:00.299Z,80.22
2022-12-18T09:02:52.002Z,78.93
2022-12-18T09:05:20.863Z,79.73
2022-12-18T09:07:49.882Z,80.08
2022-12-18T09:10:18.538Z,79.51
2022-12-18T09:12:48.118Z,79.67
2022-12-18T09:15:18.301Z,79.84
2022-12-18T09:17:47.014Z,80.28
2022-12-18T09:20:16.941Z,80.32
2022-12-18T09:22:46.891Z,80.25
2022-12-18T09:25:15.824Z,80.07
2022-12-18T09:27:44.612Z,81.21
2022-12-18T09:30:14.545Z,81.10
2022-12-18T09:32:43.394Z,81.03
2022-12-18T09:35:12.124Z,80.09
2022-12-18T09:37:43.211Z,80.02
2022-12-18T09:40:22.550Z,80.20
2022-12-18T09:42:59.367Z,79.74
2022-12-18T09:45:29.498Z,79.39
2022-12-18T09:47:59.025Z,78.92
2022-12-18T09:50:40.575Z,78.99
2022-12-18T09:53:26.470Z,79.10
2022-12-18T09:55:56.293Z,78.73
2022-12-18T09:58:32.130Z,78.71
2022-12-18T10:01:00.927Z,79.56
2022-12-18T10:03:29.856Z,79.52
2022-12-18T10:06:22.027Z,79.66
2022-12-18T10:09:38.888Z,79.41
2022-12-18T10:12:26.798Z,79.51
2022-12-18T10:15:14.034Z,79.61
2022-12-18T10:17:54.918Z,79.98
2022-12-18T10:20:45.404Z,80.17
2022-12-18T10:23:48.317Z,80.40
2022-12-18T10:26:17.490Z,80.66
2022-12-18T10:28:47.200Z,80.84
2022-12-18T10:31:24.695Z,80.56
2022-12-18T10:33:56.548Z,80.58
2022-12-18T10:36:26.682Z,80.34
2022-12-18T10:39:36.217Z,79.66
2022-12-18T10:42:20.400Z,79.39
2022-12-18T10:45:05.038Z,78.76
2022-12-18T10:47:35.924Z,78.53
2022-12-18T10:50:05.370Z,77.26
2022-12-18T10:52:34.369Z,77.72
2022-12-18T10:55:06.271Z,76.80
2022-12-18T10:57:38.128Z,77.40
2022-12-18T11:00:32.379Z,77.50
2022-12-18T11:03:01.320Z,77.36
2022-12-18T11:05:34.214Z,76.91
2022-12-18T11:08:04.070Z,76.50
2022-12-18T11:10:36.847Z,76.70
2022-12-18T11:13:39.625Z,76.33
2022-12-18T11:16:08.645Z,75.40
2022-12-18T11:18:38.097Z,75.37
2022-12-18T11:21:13.527Z,75.58
2022-12-18T11:23:54.531Z,76.04
2022-12-18T11:26:36.046Z,75.48
2022-12-18T11:29:19.227Z,75.76
2022-12-18T11:31:48.963Z,75.84
2022-12-18T11:34:30.361Z,76.07
2022-12-18T11:37:02.322Z,75.65
2022-12-18T11:39:44.117Z,75.46
2022-12-18T11:42:23.140Z,75.75
2022-12-18T11:44:59.831Z,76.24
2022-12-18T11:48:23.614Z,76.56
2022-12-18T11:50:58.463Z,76.82
2022-12-18T11:53:28.956Z,76.60
2022-12-18T11:56:22.238Z,76.31
2022-12-18T11:59:09.829Z,76.66
2022-12-18T12:01:54.850Z,76.65
2022-12-18T12:04:57.737Z,76.92
2022-12-18T12:07:52.884Z,76.89
2022-12-18T12:10:39.641Z,75.58
2022-12-18T12:13:23.554Z,76.58
2022-12-18T12:16:31.330Z,75.98
2022-12-18T12:19:36.433Z,75.17
2022-12-18T12:22:23.949Z,74.53
2022-12-18T12:25:16.601Z,74.75
2022-12-18T12:28:44.022Z,74.79
2022-12-18T12:31:43.466Z,76.00
2022-12-18T12:34:52.649Z,76.79
2022-12-18T12:38:12.932Z,77.03
2022-12-18T12:40:58.892Z,75.96
2022-12-18T12:43:50.690Z,75.13
2022-12-18T12:46:24.228Z,74.92
2022-12-18T12:48:59.336Z,75.31
2022-12-18T12:51:41.877Z,75.57
2022-12-18T12:54:26.473Z,75.94
2022-12-18T12:57:01.818Z,75.94
2022-12-18T12:59:58.128Z,76.25
2022-12-18T13:02:45.028Z,77.19
2022-12-18T13:05:28.478Z,77.49
2022-12-18T13:08:33.478Z,77.33
2022-12-18T13:11:22.466Z,77.52
2022-12-18T13:13:56.414Z,76.46
2022-12-18T13:16:28.781Z,75.56
2022-12-18T13:19:00.076Z,75.47
2022-12-18T13:21:35.737Z,74.94
2022-12-18T13:24:33.619Z,74.61
2022-12-18T13:27:40.636Z,74.80
2022-12-18T13:30:34.285Z,74.97
2022-12-18T13:33:15.666Z,75.41
2022-12-18T13:35:48.113Z,75.64
2022-12-18T13:38:32.491Z,75.86
2022-12-18T13:41:04.337Z,74.67
2022-12-18T13:44:11.339Z,74.14
2022-12-18T13:46:50.738Z,74.24
2022-12-18T13:49:30.000Z,74.84
2022-12-18T13:51:58.798Z,74.24
2022-12-18T13:54:43.610Z,73.86
2022-12-18T13:57:33.021Z,73.87
2022-12-18T14:00:23.727Z,73.69
2022-12-18T14:02:53.157Z,73.88
2022-12-18T14:05:35.703Z,74.26
2022-12-18T14:08:11.349Z,74.08
2022-12-18T14:10:49.737Z,74.37
2022-12-18T14:13:30.691Z,74.69
2022-12-18T14:16:03.787Z,75.15
2022-12-18T14:19:02.252Z,75.66
2022-12-18T14:21:49.333Z,76.17
2022-12-18T14:24:23.504Z,76.30
2022-12-18T14:26:52.607Z,76.28
2022-12-18T14:29:30.506Z,76.43
2022-12-18T14:32:17.896Z,76.79
2022-12-18T14:35:15.065Z,76.93
2022-12-18T14:37:43.790Z,77.37
2022-12-18T14:40:16.680Z,77.53
2022-12-18T14:42:48.729Z,77.46
2022-12-18T14:45:41.476Z,78.00
2022-12-18T14:48:33.195Z,77.72
2022-12-18T14:51:07.331Z,77.96
2022-12-18T14:53:52.385Z,78.07
2022-12-18T14:56:37.756Z,78.36
2022-12-18T14:59:23.869Z,77.78
2022-12-18T15:02:10.457Z,77.52
2022-12-18T15:04:44.459Z,77.66
2022-12-18T15:07:25.497Z,76.88
2022-12-18T15:10:15.596Z,76.70
2022-12-18T15:12:46.956Z,77.03
2022-12-18T15:15:34.858Z,76.85
2022-12-18T15:18:42.746Z,76.15
2022-12-18T15:21:17.657Z,75.87
2022-12-18T15:23:46.548Z,76.22
2022-12-18T15:26:19.082Z,76.34
2022-12-18T15:29:01.271Z,76.71
2022-12-18T15:31:31.585Z,76.42
2022-12-18T15:34:09.475Z,76.26
2022-12-18T15:36:38.148Z,76.13
2022-12-18T15:39:07.373Z,76.16
2022-12-18T15:41:37.916Z,76.44
2022-12-18T15:44:24.897Z,76.99
2022-12-18T15:46:54.006Z,76.72
2022-12-18T15:49:23.918Z,77.18
2022-12-18T15:52:00.953Z,77.33
2022-12-18T15:54:48.801Z,77.40
2022-12-18T15:57:25.160Z,77.00
2022-12-18T15:59:59.498Z,77.47
2022-12-18T16:02:29.785Z,77.54
2022-12-18T16:04:58.928Z,77.02
2022-12-18T16:07:31.016Z,77.17
2022-12-18T16:10:02.271Z,76.96
2022-12-18T16:12:32.122Z,76.95
2022-12-18T16:15:01.139Z,76.95
2022-12-18T16:17:29.854Z,76.79
2022-12-18T16:19:59.402Z,77.30
2022-12-18T16:22:32.552Z,77.71
2022-12-18T16:25:01.170Z,77.01
2022-12-18T16:27:29.898Z,76.97
2022-12-18T16:29:58.621Z,77.35
2022-12-18T16:32:27.426Z,77.33
2022-12-18T16:35:02.997Z,77.50
2022-12-18T16:37:35.343Z,77.65
2022-12-18T16:40:10.267Z,77.61
2022-12-18T16:42:45.965Z,77.98
2022-12-18T16:45:18.540Z,78.35
2022-12-18T16:47:47.361Z,78.34
2022-12-18T16:50:16.414Z,78.44
2022-12-18T16:52:45.151Z,78.69
2022-12-18T16:55:13.815Z,79.05
2022-12-18T16:57:42.642Z,79.16
2022-12-18T17:00:12.840Z,79.05
2022-12-18T17:02:42.011Z,79.27
2022-12-18T17:05:11.035Z,78.91
2022-12-18T17:07:40.498Z,78.99
2022-12-18T17:10:10.336Z,79.02
2022-12-18T17:12:39.043Z,79.42
2022-12-18T17:15:09.729Z,79.00
2022-12-18T17:17:38.683Z,79.09
2022-12-18T17:20:08.175Z,79.61
2022-12-18T17:22:36.876Z,79.48
2022-12-18T17:25:06.007Z,79.48
2022-12-18T17:27:34.900Z,79.50
2022-12-18T17:30:05.541Z,79.16
2022-12-18T17:32:34.372Z,79.41
2022-12-18T17:35:07.188Z,79.77
2022-12-18T17:37:37.474Z,79.81
2022-12-18T17:40:07.911Z,80.29
2022-12-18T17:42:36.574Z,80.10
2022-12-18T17:45:07.803Z,79.50
2022-12-18T17:47:37.847Z,79.56
2022-12-18T17:50:07.189Z,79.10
2022-12-18T17:52:36.663Z,79.07
2022-12-18T17:55:05.935Z,79.60
2022-12-18T17:57:34.802Z,79.76
2022-12-18T18:00:06.443Z,79.87
2022-12-18T18:02:38.299Z,80.43
2022-12-18T18:05:08.863Z,80.81
2022-12-18T18:07:40.805Z,79.71
2022-12-18T18:10:10.299Z,79.19
2022-12-18T18:12:57.476Z,79.12
2022-12-18T18:15:26.317Z,78.53
2022-12-18T18:17:54.902Z,78.96
2022-12-18T18:20:23.550Z,78.16
2022-12-18T18:22:52.433Z,78.15
2022-12-18T18:25:21.226Z,78.33
2022-12-18T18:27:51.197Z,78.42
2022-12-18T18:30:19.965Z,78.41
2022-12-18T18:32:48.959Z,78.26
2022-12-18T18:35:45.173Z,77.93
2022-12-18T18:38:07.295Z,78.29
2022-12-18T18:40:35.999Z,78.65
2022-12-18T18:43:04.933Z,78.97
2022-12-18T18:45:35.051Z,78.96
2022-12-18T18:48:03.939Z,79.00
2022-12-18T18:50:32.639Z,78.25
2022-12-18T18:53:01.521Z,78.30
2022-12-18T18:55:33.305Z,78.17
2022-12-18T18:58:02.129Z,78.35
2022-12-18T19:00:34.766Z,78.79
2022-12-18T19:09:37.294Z,78.78
2022-12-18T19:12:26.165Z,78.66
2022-12-18T19:15:00.911Z,79.38
2022-12-18T19:17:31.524Z,79.49
2022-12-18T19:20:00.734Z,78.91
2022-12-18T19:22:29.452Z,78.64
2022-12-18T19:24:58.253Z,77.66
2022-12-18T19:27:27.144Z,77.73
2022-12-18T19:29:56.076Z,77.89
2022-12-18T19:32:24.949Z,78.40
2022-12-18T19:34:54.147Z,78.39
2022-12-18T19:37:22.835Z,77.91
2022-12-18T19:39:52.255Z,77.94
2022-12-18T19:42:26.273Z,78.25
2022-12-18T19:44:58.173Z,78.95
2022-12-18T19:47:26.966Z,79.22
2022-12-18T19:49:55.829Z,78.92
2022-12-18T19:52:24.535Z,78.64
2022-12-18T19:54:53.893Z,78.54
2022-12-18T19:57:22.965Z,79.25
2022-12-18T19:59:51.712Z,79.56
2022-12-18T20:02:21.554Z,79.42
2022-12-18T20:04:51.291Z,79.59
2022-12-18T20:07:20.019Z,79.23
2022-12-18T20:09:52.685Z,79.51
2022-12-18T20:12:26.023Z,79.53
2022-12-18T20:14:55.302Z,80.03
2022-12-18T20:17:24.311Z,80.09
2022-12-18T20:19:53.304Z,79.64
2022-12-18T20:22:23.105Z,79.30
2022-12-18T20:24:51.995Z,79.66
2022-12-18T20:27:21.095Z,79.62
2022-12-18T20:29:51.218Z,79.30
2022-12-18T20:32:20.105Z,79.39
2022-12-18T20:34:48.872Z,79.51
2022-12-18T20:37:18.725Z,79.94
2022-12-18T20:39:48.243Z,79.73
2022-12-18T20:42:17.515Z,79.80
2022-12-18T20:44:46.711Z,79.33
2022-12-18T20:47:16.320Z,79.45
2022-12-18T20:49:45.832Z,79.68
2022-12-18T20:52:15.191Z,79.52
2022-12-18T20:54:43.928Z,79.77
2022-12-18T20:57:12.693Z,79.30
2022-12-18T20:59:46.306Z,79.18
2022-12-18T21:02:18.039Z,79.56
2022-12-18T21:04:47.462Z,80.07
2022-12-18T21:07:16.375Z,80.12
2022-12-18T21:09:45.356Z,79.71
2022-12-18T21:12:40.246Z,79.91
2022-12-18T21:15:17.737Z,79.90
2022-12-18T21:17:46.788Z,79.72
2022-12-18T21:20:17.582Z,80.16
2022-12-18T21:22:47.570Z,80.10
2022-12-18T21:25:16.686Z,79.98
2022-12-18T21:27:45.581Z,80.07
2022-12-18T21:30:15.296Z,78.12
2022-12-18T21:32:44.393Z,74.67
2022-12-18T21:35:13.389Z,74.75
2022-12-18T21:37:42.285Z,74.36
2022-12-18T21:40:12.145Z,74.58
2022-12-18T21:42:59.311Z,74.80
2022-12-18T21:45:28.297Z,74.01
2022-12-18T21:47:57.191Z,74.25
2022-12-18T21:50:26.123Z,73.91
2022-12-18T21:52:54.980Z,74.19
2022-12-18T21:55:23.863Z,74.50
2022-12-18T21:57:54.579Z,73.97
2022-12-18T22:00:23.558Z,74.04
2022-12-18T22:03:13.412Z,74.10
2022-12-18T22:05:41.363Z,74.65
2022-12-18T22:08:10.659Z,74.34
2022-12-18T22:10:40.242Z,74.05
2022-12-18T22:13:09.463Z,73.88
2022-12-18T22:15:38.175Z,74.73
2022-12-18T22:18:07.115Z,74.46
2022-12-18T22:20:35.834Z,75.00
2022-12-18T22:23:06.041Z,73.45
2022-12-18T22:25:39.708Z,73.38
2022-12-18T22:29:08.042Z,73.26
2022-12-18T22:31:37.603Z,73.45
2022-12-18T22:34:07.893Z,73.92
2022-12-18T22:36:46.138Z,74.39
2022-12-18T22:39:21.782Z,74.85
2022-12-18T22:41:51.888Z,75.30
2022-12-18T22:44:21.164Z,74.85
2022-12-18T22:47:05.377Z,74.23
2022-12-18T22:49:37.084Z,74.67
2022-12-18T22:52:09.738Z,74.14
2022-12-18T22:54:38.738Z,74.33
2022-12-18T22:57:07.423Z,74.82
2022-12-18T22:59:36.206Z,74.81
2022-12-18T23:02:05.322Z,74.38
2022-12-18T23:04:36.632Z,74.23
2022-12-18T23:07:06.792Z,74.49
2022-12-18T23:09:36.102Z,74.89
2022-12-18T23:12:05.696Z,75.75
2022-12-18T23:14:34.683Z,76.48
2022-12-18T23:17:03.572Z,76.89
2022-12-18T23:19:32.465Z,76.97
2022-12-18T23:22:05.036Z,76.75
2022-12-18T23:24:36.288Z,77.00
2022-12-18T23:27:08.585Z,77.14
2022-12-18T23:29:41.300Z,77.30
2022-12-18T23:32:10.018Z,77.81
2022-12-18T23:34:38.926Z,77.72
2022-12-18T23:37:08.417Z,77.59
2022-12-18T23:39:37.528Z,76.73
2022-12-18T23:42:06.530Z,76.82
2022-12-18T23:44:35.408Z,77.04
2022-12-18T23:47:04.403Z,76.82
2022-12-18T23:49:33.493Z,77.11
2022-12-18T23:52:02.686Z,76.50
2022-12-18T23:54:33.534Z,76.74
2022-12-18T23:57:02.926Z,76.00
2022-12-18T23:59:31.826Z,75.58
